Time;durP1;ratioP1;P1;durP2;ratioP2;P2;SDS_P1;SDS_P2;PMS_P1;PMS_P2;Temp;Humidity;BMP_temperature;BMP_pressure;BME280_temperature;BME280_humidity;BME280_pressure;Samples;Min_cycle;Max_cycle;Signal;HPM_P1;HPM_P2
2023/03/24 00:02:09;;;;;;;4.80;1.38;;;;;;;16.66;48.86;98216.44;5074777;28;20039;-49
2023/03/24 00:04:35;;;;;;;5.35;1.77;;;;;;;16.53;49.67;98201.72;5073523;28;20021;-49
2023/03/24 00:07:02;;;;;;;5.00;2.60;;;;;;;16.53;50.29;98190.34;5074805;28;20459;-49
2023/03/24 00:09:29;;;;;;;4.18;1.80;;;;;;;16.51;49.93;98195.88;5074693;28;20091;-49
2023/03/24 00:11:56;;;;;;;8.05;2.22;;;;;;;16.24;51.60;98190.59;5073382;28;20494;-49
2023/03/24 00:14:22;;;;;;;8.35;2.05;;;;;;;16.20;51.98;98183.38;5073414;28;20108;-49
2023/03/24 00:16:49;;;;;;;7.97;2.65;;;;;;;16.17;52.16;98190.78;5073435;28;20029;-49
2023/03/24 00:19:15;;;;;;;6.47;2.45;;;;;;;16.05;53.65;98189.31;5074611;28;20079;-49
2023/03/24 00:21:41;;;;;;;5.82;1.77;;;;;;;15.93;53.39;98192.88;5073208;28;20024;-49
2023/03/24 00:24:08;;;;;;;6.03;3.00;;;;;;;15.97;54.00;98201.13;5073120;28;20029;-49
2023/03/24 00:26:36;;;;;;;7.10;1.83;;;;;;;16.00;53.35;98183.97;5073154;28;20083;-49
2023/03/24 00:29:04;;;;;;;5.72;2.38;;;;;;;15.87;53.64;98188.59;5074008;28;20394;-49
2023/03/24 00:31:30;;;;;;;5.38;2.65;;;;;;;15.85;53.88;98179.31;5074336;28;20024;-50
2023/03/24 00:33:56;;;;;;;4.57;2.28;;;;;;;15.85;53.89;98174.00;5073346;28;20029;-49
2023/03/24 00:36:24;;;;;;;7.30;2.65;;;;;;;15.80;54.20;98150.94;5074514;28;20036;-49
2023/03/24 00:38:51;;;;;;;3.78;2.35;;;;;;;15.80;54.04;98145.66;5056284;28;20410;-49
2023/03/24 00:41:18;;;;;;;6.82;2.72;;;;;;;15.72;54.71;98148.69;5072883;28;20486;-49
2023/03/24 00:43:46;;;;;;;5.00;1.90;;;;;;;15.83;54.33;98147.78;5074077;28;20021;-49
2023/03/24 00:46:26;;;;;;;5.53;2.03;;;;;;;15.79;54.07;98149.31;5072765;28;20524;-49
2023/03/24 00:49:01;;;;;;;3.17;1.80;;;;;;;15.63;54.46;98172.13;5074268;28;20498;-50
2023/03/24 00:51:28;;;;;;;4.35;2.05;;;;;;;15.58;55.03;98180.81;5083858;28;20050;-50
2023/03/24 00:53:56;;;;;;;7.07;2.38;;;;;;;15.62;55.32;98164.47;5076097;28;20075;-49
2023/03/24 00:56:25;;;;;;;7.53;2.40;;;;;;;15.60;55.81;98177.13;5094145;28;20501;-49
2023/03/24 00:58:53;;;;;;;6.07;2.15;;;;;;;15.60;56.27;98171.84;5094113;28;20016;-49
2023/03/24 01:01:20;;;;;;;4.80;2.13;;;;;;;15.66;54.79;98126.69;5094116;28;20107;-50
2023/03/24 01:03:49;;;;;;;4.13;2.17;;;;;;;15.62;54.65;98154.66;5075833;28;20021;-50
2023/03/24 01:06:17;;;;;;;7.65;2.50;;;;;;;15.57;55.48;98146.66;5094246;28;20498;-49
2023/03/24 01:08:44;;;;;;;5.63;3.40;;;;;;;15.58;55.16;98125.25;5094210;28;20020;-49
2023/03/24 01:11:11;;;;;;;3.78;2.75;;;;;;;15.72;54.80;98133.66;5075661;28;20047;-49
2023/03/24 01:13:39;;;;;;;7.95;2.40;;;;;;;15.79;54.23;98157.28;5093836;28;20028;-49
2023/03/24 01:16:06;;;;;;;7.63;2.58;;;;;;;15.77;54.73;98176.06;5093781;28;20023;-49
2023/03/24 01:18:33;;;;;;;5.03;2.00;;;;;;;15.83;54.27;98162.88;5093778;28;20077;-49
2023/03/24 01:21:00;;;;;;;3.80;2.20;;;;;;;15.80;54.06;98166.03;5093603;28;20016;-50
2023/03/24 01:23:26;;;;;;;4.18;1.95;;;;;;;15.75;53.76;98180.78;5058772;28;20080;-50
2023/03/24 01:25:53;;;;;;;6.70;2.70;;;;;;;15.75;54.04;98201.13;5075386;28;20379;-49
2023/03/24 01:28:23;;;;;;;6.35;2.25;;;;;;;15.96;53.67;98212.78;5093482;28;20024;-49
2023/03/24 01:30:50;;;;;;;5.65;2.33;;;;;;;16.03;53.48;98221.31;5093534;28;20021;-49
2023/03/24 01:33:19;;;;;;;7.30;2.80;;;;;;;15.97;53.10;98212.50;5093469;28;20016;-49
2023/03/24 01:35:45;;;;;;;5.18;2.13;;;;;;;16.00;53.04;98227.13;5093319;28;20024;-50
2023/03/24 01:38:12;;;;;;;4.95;2.28;;;;;;;16.12;52.53;98221.72;5075160;28;20020;-49
2023/03/24 01:40:40;;;;;;;7.95;4.45;;;;;;;16.23;52.82;98212.81;5074310;28;20032;-49
2023/03/24 01:43:14;;;;;;;6.03;3.03;;;;;;;16.35;52.70;98199.44;5074951;28;20034;-49
2023/03/24 01:46:14;;;;;;;13.27;3.72;;;;;;;16.50;52.77;98186.34;5075058;28;20493;-49
2023/03/24 01:48:42;;;;;;;10.95;3.85;;;;;;;16.74;52.17;98173.56;5074954;28;20035;-49
2023/03/24 01:51:25;;;;;;;8.07;2.45;;;;;;;16.95;51.50;98163.94;5092875;28;20048;-49
2023/03/24 01:54:22;;;;;;;7.80;2.92;;;;;;;17.11;50.68;98148.16;5074859;28;20024;-50
2023/03/24 01:56:56;;;;;;;20.00;4.07;;;;;;;17.15;50.34;98143.94;5093035;28;20110;-49
2023/03/24 01:59:26;;;;;;;5.30;2.20;;;;;;;17.06;50.11;98170.09;5093102;28;20409;-49
2023/03/24 02:02:01;;;;;;;9.65;3.03;;;;;;;16.97;50.63;98174.28;5058092;28;20039;-50
2023/03/24 02:04:28;;;;;;;;;;;;;;;16.97;50.85;98190.19;5093358;28;20119;-49
2023/03/24 02:06:54;;;;;;;10.80;3.42;;;;;;;16.93;51.40;98175.84;5074594;28;19919;-49
2023/03/24 02:09:20;;;;;;;7.57;3.00;;;;;;;16.83;50.66;98181.09;5074719;28;20021;-49
2023/03/24 02:11:45;;;;;;;13.80;3.63;;;;;;;16.65;50.68;98164.47;5092769;28;20031;-49
2023/03/24 02:14:12;;;;;;;12.57;3.40;;;;;;;16.67;51.46;98167.66;5074525;28;20085;-49
2023/03/24 02:16:48;;;;;;;6.22;2.58;;;;;;;16.90;50.33;98169.22;5092550;28;20027;-49
2023/03/24 02:19:37;;;;;;;5.63;2.33;;;;;;;16.93;50.42;98175.84;5074462;28;20077;-49
2023/03/24 02:22:06;;;;;;;5.70;2.50;;;;;;;16.88;50.59;98176.63;5092601;28;20028;-49
2023/03/24 02:25:02;;;;;;;4.72;2.13;;;;;;;16.85;49.87;98178.97;5092403;28;20031;-49
2023/03/24 02:28:02;;;;;;;7.30;2.60;;;;;;;16.85;50.57;98192.22;5092538;28;20031;-49
2023/03/24 02:30:40;;;;;;;4.18;2.58;;;;;;;16.96;49.88;98185.94;5074274;28;20038;-49
2023/03/24 02:33:21;;;;;;;5.03;2.15;;;;;;;16.96;48.89;98183.28;5092715;28;20024;-49
2023/03/24 02:36:18;;;;;;;5.20;2.40;;;;;;;16.95;49.79;98179.84;5092636;28;20031;-49
2023/03/24 02:39:05;;;;;;;9.93;2.80;;;;;;;16.94;51.29;98170.31;5092320;28;20107;-49
2023/03/24 02:41:37;;;;;;;5.00;2.55;;;;;;;16.81;50.37;98154.00;5074057;28;20508;-49
2023/03/24 02:44:12;;;;;;;6.05;2.40;;;;;;;16.67;52.95;98143.03;5092203;28;20031;-49
2023/03/24 02:46:51;;;;;;;4.68;2.40;;;;;;;16.34;54.17;98139.59;5092233;28;20059;-49
2023/03/24 02:49:29;;;;;;;6.38;2.40;;;;;;;15.78;54.76;98143.25;5073999;28;20510;-49
2023/03/24 02:52:04;;;;;;;6.72;2.30;;;;;;;15.57;55.43;98144.84;5091681;28;20066;-50
2023/03/24 02:54:38;;;;;;;6.45;1.80;;;;;;;15.58;53.28;98162.28;5092120;28;20043;-49
2023/03/24 02:57:35;;;;;;;3.60;1.83;;;;;;;15.54;53.09;98163.03;5092042;28;20032;-49
2023/03/24 03:00:21;;;;;;;8.70;3.03;;;;;;;15.56;53.53;98167.03;5092231;28;20038;-49
2023/03/24 03:03:07;;;;;;;9.43;3.38;;;;;;;15.90;53.72;98187.31;5073830;28;20028;-49
2023/03/24 03:05:47;;;;;;;4.70;2.45;;;;;;;16.26;52.32;98185.03;5057070;28;20112;-50
2023/03/24 03:08:16;;;;;;;6.85;2.38;;;;;;;16.23;51.06;98209.38;5073788;28;20039;-49
2023/03/24 03:10:45;;;;;;;7.50;3.55;;;;;;;16.21;50.83;98214.91;5091865;28;20095;-49
2023/03/24 03:13:26;;;;;;;5.55;2.42;;;;;;;16.35;50.04;98204.72;5073705;28;20062;-49
2023/03/24 03:15:57;;;;;;;7.10;2.28;;;;;;;16.38;50.38;98191.78;5073661;28;20059;-49
2023/03/24 03:18:32;;;;;;;9.77;2.20;;;;;;;16.54;49.30;98202.50;5073822;28;20036;-49
2023/03/24 03:21:10;;;;;;;4.90;2.03;;;;;;;16.73;48.70;98213.56;5073674;28;20035;-49
2023/03/24 03:23:45;;;;;;;8.85;2.10;;;;;;;16.71;48.82;98228.91;5091656;28;20067;-49
2023/03/24 03:26:15;;;;;;;15.63;3.20;;;;;;;16.76;48.88;98226.28;5073665;28;20111;-49
2023/03/24 03:28:48;;;;;;;3.47;2.00;;;;;;;16.76;48.68;98215.69;5073606;28;20054;-49
2023/03/24 03:31:22;;;;;;;6.97;1.88;;;;;;;16.71;48.19;98192.63;5091753;28;20116;-49
2023/03/24 03:34:03;;;;;;;6.97;1.85;;;;;;;16.65;48.43;98198.13;5091709;28;20516;-49
2023/03/24 03:36:34;;;;;;;8.02;2.85;;;;;;;16.59;49.08;98197.28;5073482;28;20107;-49
2023/03/24 03:39:17;;;;;;;6.00;1.70;;;;;;;16.65;48.21;98177.72;5073550;28;20390;-49
2023/03/24 03:41:44;;;;;;;7.18;2.80;;;;;;;16.48;48.73;98188.44;5058387;28;20413;-49
2023/03/24 03:44:10;;;;;;;3.95;1.60;;;;;;;16.33;49.03;98156.50;5073320;28;20054;-50
2023/03/24 03:46:36;;;;;;;7.95;2.17;;;;;;;16.16;49.42;98168.00;5073852;28;20440;-49
2023/03/24 03:49:05;;;;;;;10.80;2.35;;;;;;;16.15;49.80;98157.66;5091476;28;20025;-49
2023/03/24 03:51:32;;;;;;;7.05;1.90;;;;;;;16.16;49.04;98170.66;5072603;28;20080;-50
2023/03/24 03:54:02;;;;;;;3.83;1.63;;;;;;;15.99;48.61;98193.75;5090743;28;20028;-49
2023/03/24 03:56:30;;;;;;;3.28;1.60;;;;;;;15.88;48.66;98192.84;5072287;28;20086;-49
2023/03/24 03:58:57;;;;;;;5.22;1.40;;;;;;;15.87;48.85;98190.44;5072325;28;20020;-50
2023/03/24 04:01:26;;;;;;;6.40;1.38;;;;;;;16.02;48.00;98182.69;5072313;28;20024;-49
2023/03/24 04:03:51;;;;;;;8.40;2.25;;;;;;;15.98;48.91;98190.31;5091927;28;20024;-50
2023/03/24 04:06:36;;;;;;;6.18;1.80;;;;;;;15.74;50.83;98205.63;5093918;28;20043;-49
2023/03/24 04:09:18;;;;;;;4.93;1.50;;;;;;;15.31;50.77;98178.06;5094116;28;20052;-49
2023/03/24 04:12:15;;;;;;;4.45;2.00;;;;;;;15.16;52.71;98197.16;5093880;28;20035;-49
2023/03/24 04:15:02;;;;;;;9.77;1.95;;;;;;;15.18;52.77;98189.78;5011554;28;20042;-49
2023/03/24 04:18:01;;;;;;;6.13;1.30;;;;;;;15.33;51.04;98178.63;5011540;28;20092;-50
2023/03/24 04:20:45;;;;;;;6.32;1.50;;;;;;;15.38;51.12;98160.19;5011695;28;20049;-50
2023/03/24 04:23:44;;;;;;;7.68;1.92;;;;;;;15.47;51.10;98151.81;5011469;28;20440;-49
2023/03/24 04:26:28;;;;;;;7.18;1.42;;;;;;;15.54;50.63;98163.81;5001539;28;20069;-50
2023/03/24 04:29:13;;;;;;;5.05;1.38;;;;;;;15.65;49.31;98156.00;4995044;28;20499;-49
2023/03/24 04:31:48;;;;;;;1.65;1.20;;;;;;;15.55;49.08;98164.63;5011259;28;20030;-49
2023/03/24 04:34:19;;;;;;;8.02;1.70;;;;;;;15.46;50.00;98155.53;5011455;28;20073;-49
2023/03/24 04:36:56;;;;;;;3.90;1.27;;;;;;;15.51;49.23;98137.88;5011377;28;20049;-49
2023/03/24 04:39:26;;;;;;;52.65;7.60;;;;;;;15.38;49.75;98045.69;5011333;28;20112;-49
2023/03/24 04:41:59;;;;;;;65.07;11.13;;;;;;;15.40;50.70;98082.47;5011224;28;20033;-49
2023/03/24 04:44:26;;;;;;;41.55;5.07;;;;;;;15.36;52.58;98087.44;5011169;28;20048;-49
2023/03/24 04:46:56;;;;;;;6.97;1.85;;;;;;;15.18;50.89;98107.03;5011091;28;20018;-49
2023/03/24 04:49:26;;;;;;;5.05;1.98;;;;;;;14.97;51.47;98117.34;4995248;28;20038;-49
2023/03/24 04:51:52;;;;;;;6.18;2.28;;;;;;;14.90;52.08;98177.47;5027745;28;1453483;-49
2023/03/24 04:54:21;;;;;;;7.28;1.67;;;;;;;14.97;52.49;98187.88;5076374;28;20562;-49
2023/03/24 04:57:00;;;;;;;7.18;1.90;;;;;;;15.15;52.01;98176.22;5076044;28;20024;-50
2023/03/24 04:59:27;;;;;;;7.85;2.13;;;;;;;15.17;52.36;98167.03;5094261;28;20039;-49
2023/03/24 05:01:53;;;;;;;3.90;1.40;;;;;;;15.18;51.82;98178.41;5075926;28;20466;-50
2023/03/24 05:04:20;;;;;;;4.65;1.40;;;;;;;15.09;52.76;98164.00;5075875;28;20020;-50
2023/03/24 05:06:48;;;;;;;8.32;2.45;;;;;;;15.15;52.82;98161.19;5075910;28;20028;-49
2023/03/24 05:09:16;;;;;;;7.50;2.53;;;;;;;15.20;53.04;98165.75;5094328;28;20046;-49
2023/03/24 05:11:43;;;;;;;3.78;1.52;;;;;;;15.39;52.97;98168.91;5076131;28;20028;-49
2023/03/24 05:14:09;;;;;;;3.40;1.48;;;;;;;15.47;52.33;98180.91;5075438;28;20028;-49
2023/03/24 05:16:35;;;;;;;4.82;1.63;;;;;;;15.54;52.19;98184.97;5093161;28;20587;-50
2023/03/24 05:19:02;;;;;;;6.45;1.35;;;;;;;15.58;52.17;98164.94;5093750;28;20024;-49
2023/03/24 05:21:27;;;;;;;7.00;2.38;;;;;;;15.70;52.24;98156.09;5075594;28;20528;-49
2023/03/24 05:23:53;;;;;;;9.20;2.20;;;;;;;15.78;51.19;98172.34;5075527;28;20055;-49
2023/03/24 05:26:19;;;;;;;6.90;2.13;;;;;;;15.69;51.11;98180.94;5075470;28;20532;-49
2023/03/24 05:28:44;;;;;;;4.68;1.73;;;;;;;15.67;51.14;98199.69;5093622;28;20435;-49
2023/03/24 05:31:10;;;;;;;4.35;1.50;;;;;;;15.70;51.20;98183.34;5075285;28;20024;-49
2023/03/24 05:33:36;;;;;;;2.95;1.40;;;;;;;15.77;50.73;98189.28;5075326;28;20111;-49
2023/03/24 05:36:02;;;;;;;7.13;2.00;;;;;;;15.83;50.51;98197.28;5093720;28;20028;-50
2023/03/24 05:38:28;;;;;;;3.55;1.30;;;;;;;15.88;49.76;98189.41;5093279;28;20104;-49
2023/03/24 05:40:58;;;;;;;1.98;1.08;;;;;;;15.85;49.94;98188.03;5075117;28;20031;-49
2023/03/24 05:43:24;;;;;;;3.35;1.70;;;;;;;15.83;50.47;98189.34;5093238;28;20020;-49
2023/03/24 05:45:50;;;;;;;14.18;3.42;;;;;;;15.90;50.79;98203.97;5093238;28;20043;-49
2023/03/24 05:48:15;;;;;;;6.70;1.80;;;;;;;16.10;50.38;98211.34;5093251;28;20016;-50
2023/03/24 05:50:41;;;;;;;9.40;2.78;;;;;;;16.17;50.74;98214.59;5074891;28;20052;-49
2023/03/24 05:53:07;;;;;;;4.82;1.90;;;;;;;16.26;50.12;98212.31;5093147;28;20031;-49
2023/03/24 05:55:32;;;;;;;8.85;1.50;;;;;;;16.36;50.24;98209.00;5093031;28;20060;-49
2023/03/24 05:58:00;;;;;;;5.93;2.63;;;;;;;16.47;50.19;98212.53;5074832;28;20443;-49
2023/03/24 06:00:29;;;;;;;8.27;2.30;;;;;;;16.60;49.93;98224.56;5074728;28;20081;-50
2023/03/24 06:02:55;;;;;;;2.83;1.50;;;;;;;16.66;49.01;98231.50;5074776;28;20032;-49
2023/03/24 06:05:21;;;;;;;7.07;2.47;;;;;;;16.53;49.40;98240.66;5074781;28;20071;-49
2023/03/24 06:07:47;;;;;;;7.65;1.85;;;;;;;16.57;48.93;98224.00;5058061;28;20056;-49
2023/03/24 06:10:13;;;;;;;7.53;2.28;;;;;;;16.48;49.83;98236.13;5074593;28;20032;-49
2023/03/24 06:12:40;;;;;;;5.93;1.90;;;;;;;16.49;49.51;98218.38;5074745;28;20017;-49
2023/03/24 06:15:07;;;;;;;8.10;1.65;;;;;;;16.51;49.67;98218.94;5092667;28;20163;-49
2023/03/24 06:17:33;;;;;;;7.53;2.08;;;;;;;16.50;49.67;98223.44;5092642;28;20027;-50
2023/03/24 06:20:02;;;;;;;6.93;1.85;;;;;;;16.62;49.72;98219.81;5074413;28;20016;-49
2023/03/24 06:22:31;;;;;;;4.15;1.70;;;;;;;16.65;49.54;98229.91;5092449;28;20032;-49
2023/03/24 06:24:57;;;;;;;8.32;1.88;;;;;;;16.57;49.60;98225.88;5092455;28;20059;-50
2023/03/24 06:27:25;;;;;;;3.22;1.48;;;;;;;16.63;49.31;98232.81;5092099;28;20106;-49
2023/03/24 06:29:52;;;;;;;6.45;1.83;;;;;;;16.54;49.33;98240.44;5092360;28;20030;-50
2023/03/24 06:32:20;;;;;;;7.75;1.70;;;;;;;16.36;49.31;98235.47;5092350;28;20023;-49
2023/03/24 06:34:46;;;;;;;3.60;1.92;;;;;;;16.31;50.15;98227.47;5074201;28;20089;-50
2023/03/24 06:37:13;;;;;;;4.00;1.48;;;;;;;16.32;49.30;98229.88;5074134;28;20016;-49
2023/03/24 06:39:39;;;;;;;3.92;1.77;;;;;;;16.23;49.43;98222.63;5074102;28;20024;-49
2023/03/24 06:42:05;;;;;;;3.92;1.70;;;;;;;16.07;49.95;98206.53;5092288;28;20047;-50
2023/03/24 06:44:31;;;;;;;7.95;2.20;;;;;;;16.04;50.76;98224.78;5092145;28;20401;-50
2023/03/24 06:46:57;;;;;;;5.88;2.25;;;;;;;16.08;49.80;98233.84;5073923;28;20752;-50
2023/03/24 06:49:23;;;;;;;4.45;1.58;;;;;;;15.90;49.84;98211.13;5074017;28;20024;-49
2023/03/24 06:51:49;;;;;;;6.22;1.60;;;;;;;15.82;50.17;98219.50;5057099;28;20040;-49
2023/03/24 06:54:15;;;;;;;9.38;2.10;;;;;;;15.97;50.41;98232.91;5073883;28;20397;-50
2023/03/24 06:56:41;;;;;;;3.22;1.40;;;;;;;16.01;49.70;98227.91;5091956;28;20059;-50
2023/03/24 06:59:07;;;;;;;3.22;1.40;;;;;;;16.01;49.77;98220.78;5092043;28;20012;-49
2023/03/24 07:01:37;;;;;;;1.70;0.95;;;;;;;16.08;49.44;98226.69;5092212;28;20024;-49
2023/03/24 07:04:03;;;;;;;2.58;1.15;;;;;;;16.03;49.47;98223.97;5091877;28;20016;-49
2023/03/24 07:06:29;;;;;;;7.13;2.22;;;;;;;15.96;49.64;98226.03;5091970;28;20053;-49
2023/03/24 07:08:56;;;;;;;4.95;2.20;;;;;;;15.89;49.93;98212.94;5091984;28;20016;-49
2023/03/24 07:11:22;;;;;;;7.75;2.20;;;;;;;15.87;50.35;98232.78;5091790;28;20020;-49
2023/03/24 07:13:48;;;;;;;8.48;1.90;;;;;;;15.95;50.27;98211.97;5073732;28;20154;-49
2023/03/24 07:16:13;;;;;;;5.93;1.50;;;;;;;16.00;49.68;98198.00;5073707;28;20036;-49
2023/03/24 07:18:39;;;;;;;6.20;1.80;;;;;;;15.97;49.62;98248.78;5091803;28;20020;-49
2023/03/24 07:21:06;;;;;;;6.07;2.30;;;;;;;15.94;49.84;98225.47;5091760;28;20028;-49
2023/03/24 07:23:32;;;;;;;10.50;2.42;;;;;;;15.96;49.91;98231.31;5091612;28;20027;-49
2023/03/24 07:25:58;;;;;;;7.32;1.92;;;;;;;15.98;49.92;98223.94;5091720;28;20408;-49
2023/03/24 07:28:24;;;;;;;9.95;2.08;;;;;;;15.90;49.86;98233.09;5073570;28;20020;-49
2023/03/24 07:30:49;;;;;;;11.93;1.85;;;;;;;15.88;50.03;98231.75;5091582;28;20032;-49
2023/03/24 07:33:15;;;;;;;7.05;1.60;;;;;;;15.91;49.46;98231.25;5073551;28;20411;-49
2023/03/24 07:35:42;;;;;;;2.55;1.73;;;;;;;15.86;49.73;98252.38;5091629;28;20409;-49
2023/03/24 07:38:09;;;;;;;4.85;2.28;;;;;;;15.75;50.33;98233.72;5074121;28;20253;-49
2023/03/24 07:40:34;;;;;;;4.43;1.40;;;;;;;15.77;49.66;98212.28;5095540;28;20026;-49
2023/03/24 07:43:03;;;;;;;4.85;1.77;;;;;;;15.88;49.15;98235.19;5077455;28;20107;-49
2023/03/24 07:45:28;;;;;;;3.60;1.42;;;;;;;15.96;48.50;98226.03;5095694;28;20024;-49
2023/03/24 07:47:56;;;;;;;6.40;1.77;;;;;;;15.96;48.29;98240.03;5077325;28;20031;-48
2023/03/24 07:50:21;;;;;;;2.78;1.30;;;;;;;15.98;47.83;98245.91;5095228;28;20048;-50
2023/03/24 07:52:48;;;;;;;3.88;1.10;;;;;;;15.96;48.12;98255.13;5095471;28;20300;-49
2023/03/24 07:55:14;;;;;;;6.72;1.50;;;;;;;16.04;48.36;98251.25;5077242;28;20457;-49
2023/03/24 07:57:47;;;;;;;4.68;2.17;;;;;;;16.16;47.76;98230.75;5077260;28;20028;-49
2023/03/24 08:00:16;;;;;;;9.07;1.85;;;;;;;16.13;47.89;98263.78;5095413;28;20036;-49
2023/03/24 08:02:44;;;;;;;2.13;1.38;;;;;;;16.13;47.67;98266.44;5095224;28;20024;-48
2023/03/24 08:05:12;;;;;;;6.97;1.80;;;;;;;16.01;48.17;98252.53;5076874;28;20016;-49
2023/03/24 08:07:41;;;;;;;3.65;1.50;;;;;;;15.94;48.36;98257.22;5076937;28;20114;-49
2023/03/24 08:10:12;;;;;;;5.72;1.38;;;;;;;15.89;48.47;98244.72;5095051;28;20039;-49
2023/03/24 08:12:39;;;;;;;3.10;1.50;;;;;;;15.84;48.88;98267.69;5095142;28;20374;-49
2023/03/24 08:15:06;;;;;;;4.38;1.55;;;;;;;15.85;48.76;98262.13;5077113;28;20032;-49
2023/03/24 08:17:32;;;;;;;3.88;1.90;;;;;;;15.85;49.14;98264.75;5094933;28;20028;-49
2023/03/24 08:19:58;;;;;;;5.15;2.05;;;;;;;15.87;48.93;98244.16;5094866;28;20024;-49
2023/03/24 08:22:23;;;;;;;2.63;1.30;;;;;;;15.82;48.43;98293.59;5076604;28;20515;-49
2023/03/24 08:24:49;;;;;;;9.60;1.95;;;;;;;15.83;49.08;98281.94;5094784;28;20117;-49
2023/03/24 08:27:15;;;;;;;2.42;1.33;;;;;;;15.93;48.43;98234.44;5095073;28;20397;-49
2023/03/24 08:29:42;;;;;;;9.02;1.60;;;;;;;15.95;48.13;98241.06;5076546;28;20020;-49
2023/03/24 08:32:07;;;;;;;13.60;2.45;;;;;;;15.90;48.83;98248.19;5076606;28;20028;-49
2023/03/24 08:34:33;;;;;;;3.85;1.77;;;;;;;15.97;48.50;98214.38;5094710;28;20043;-49
2023/03/24 08:36:59;;;;;;;3.58;1.60;;;;;;;15.99;47.85;98233.44;5094610;28;20097;-49
2023/03/24 08:39:24;;;;;;;5.85;1.33;;;;;;;15.93;48.06;98250.31;5076285;28;20024;-49
2023/03/24 08:41:50;;;;;;;4.20;1.65;;;;;;;15.91;47.87;98231.25;5076336;28;20032;-49
2023/03/24 08:44:16;;;;;;;7.57;2.00;;;;;;;15.86;48.09;98245.22;5094443;28;20031;-49
2023/03/24 08:46:42;;;;;;;4.95;1.90;;;;;;;15.85;48.51;98233.00;5076189;28;20557;-49
2023/03/24 08:49:08;;;;;;;2.75;1.33;;;;;;;15.96;47.77;98249.84;5094195;28;20508;-49
2023/03/24 08:51:34;;;;;;;7.10;1.80;;;;;;;15.98;48.17;98248.53;5094085;28;20105;-49
2023/03/24 08:54:00;;;;;;;7.93;2.28;;;;;;;16.04;48.23;98272.44;5076276;28;20024;-49
2023/03/24 08:56:26;;;;;;;11.00;2.00;;;;;;;16.08;48.00;98271.69;5094171;28;20077;-49
2023/03/24 08:58:52;;;;;;;5.43;1.30;;;;;;;16.12;47.82;98293.97;5094249;28;20401;-49
2023/03/24 09:01:22;;;;;;;5.93;2.00;;;;;;;16.12;48.36;98295.84;5094377;28;20401;-49
2023/03/24 09:03:47;;;;;;;8.48;1.95;;;;;;;16.20;48.12;98260.16;5059625;28;20016;-49
2023/03/24 09:06:14;;;;;;;5.43;1.67;;;;;;;16.25;47.35;98268.16;5094100;28;20027;-49
2023/03/24 09:08:40;;;;;;;7.75;1.73;;;;;;;16.26;48.03;98260.00;5075855;28;20166;-50
2023/03/24 09:11:12;;;;;;;4.50;1.85;;;;;;;16.21;47.82;98265.22;5093935;28;20020;-49
2023/03/24 09:13:38;;;;;;;5.95;2.08;;;;;;;16.24;48.04;98283.28;5093985;28;20020;-49
2023/03/24 09:16:04;;;;;;;5.25;1.40;;;;;;;16.32;47.12;98282.03;5093856;28;20038;-49
2023/03/24 09:18:30;;;;;;;9.38;2.20;;;;;;;16.31;48.05;98272.47;5093824;28;20389;-49
2023/03/24 09:20:56;;;;;;;10.02;2.00;;;;;;;16.34;47.94;98283.38;5093814;28;20035;-49
2023/03/24 09:23:22;;;;;;;6.28;1.85;;;;;;;16.37;47.43;98260.91;5093618;28;20028;-49
2023/03/24 09:25:52;;;;;;;6.28;1.85;;;;;;;16.42;47.65;98311.28;5075481;28;20416;-49
2023/03/24 09:28:19;;;;;;;5.72;1.65;;;;;;;16.48;47.49;98294.41;5075472;28;20501;-49
2023/03/24 09:30:45;;;;;;;7.93;2.38;;;;;;;16.55;47.42;98294.19;5093600;28;20024;-49
2023/03/24 09:33:11;;;;;;;3.80;1.50;;;;;;;16.57;46.80;98271.69;5093420;28;20020;-49
2023/03/24 09:35:37;;;;;;;4.13;1.60;;;;;;;16.48;47.52;98280.34;5075264;28;20024;-49
2023/03/24 09:38:03;;;;;;;3.45;1.52;;;;;;;16.57;47.38;98292.09;5075442;28;20024;-49
2023/03/24 09:40:34;;;;;;;4.53;1.20;;;;;;;16.65;47.44;98265.16;5093562;28;20036;-49
2023/03/24 09:43:11;;;;;;;1.60;0.93;;;;;;;16.69;46.24;98270.75;5058602;28;20596;-49
2023/03/24 09:45:47;;;;;;;3.90;1.35;;;;;;;16.68;46.86;98285.06;5093255;28;20056;-49
2023/03/24 09:48:44;;;;;;;3.90;1.60;;;;;;;16.73;46.34;98291.22;5075113;28;20028;-49
2023/03/24 09:51:17;;;;;;;4.15;1.95;;;;;;;16.66;46.63;98281.84;5088090;28;20071;-49
2023/03/24 09:54:05;;;;;;;3.78;1.85;;;;;;;16.74;46.63;98298.13;5075006;28;20020;-49
2023/03/24 09:56:34;;;;;;;5.00;1.80;;;;;;;16.76;46.80;98276.66;5074893;28;20504;-49
2023/03/24 09:59:28;;;;;;;5.85;1.73;;;;;;;16.81;46.56;98305.06;5075279;28;20103;-49
2023/03/24 10:01:55;;;;;;;4.90;1.60;;;;;;;16.87;46.10;98312.84;5092306;28;20112;-49
2023/03/24 10:04:25;;;;;;;4.13;1.45;;;;;;;16.95;46.07;98299.13;5092917;28;20031;-49
2023/03/24 10:06:58;;;;;;;3.95;1.33;;;;;;;17.07;45.25;98279.63;5075206;28;20497;-49
2023/03/24 10:09:33;;;;;;;4.57;1.83;;;;;;;17.17;45.38;98288.44;5092920;28;20027;-49
2023/03/24 10:12:37;;;;;;;7.47;1.95;;;;;;;17.23;45.57;98288.50;5074554;28;20034;-49
2023/03/24 10:15:09;;;;;;;7.15;1.98;;;;;;;17.25;45.35;98299.66;5092734;28;20024;-49
2023/03/24 10:17:42;;;;;;;9.68;1.95;;;;;;;17.21;45.78;98303.88;5074500;28;20034;-49
2023/03/24 10:20:30;;;;;;;4.63;1.30;;;;;;;17.29;45.26;98292.78;5092727;28;20222;-50
2023/03/24 10:23:00;;;;;;;10.68;2.10;;;;;;;17.33;45.34;98277.97;5074420;28;20568;-49
2023/03/24 10:25:34;;;;;;;7.05;1.52;;;;;;;17.40;44.43;98277.75;5092452;28;20024;-49
2023/03/24 10:28:15;;;;;;;3.93;1.57;;;;;;;17.33;44.87;98264.72;5092877;28;20394;-49
2023/03/24 10:30:43;;;;;;;2.35;1.02;;;;;;;17.34;44.86;98316.69;5074296;28;20269;-49
2023/03/24 10:33:12;;;;;;;13.30;2.50;;;;;;;17.33;45.57;98305.28;5092497;28;20131;-49
2023/03/24 10:36:01;;;;;;;9.60;2.10;;;;;;;17.44;44.85;98300.06;5074493;28;20419;-49
2023/03/24 10:38:27;;;;;;;9.38;2.00;;;;;;;17.44;45.33;98306.16;5092423;28;20547;-49
2023/03/24 10:40:54;;;;;;;3.70;1.48;;;;;;;17.57;44.84;98294.31;5057501;28;20024;-49
2023/03/24 10:43:22;;;;;;;8.70;1.52;;;;;;;17.78;44.75;98295.25;5074017;28;20024;-49
2023/03/24 10:45:52;;;;;;;2.97;1.40;;;;;;;17.77;44.32;98301.63;5074214;28;20019;-49
2023/03/24 10:48:47;;;;;;;7.13;1.90;;;;;;;17.64;45.36;98308.16;5092167;28;20040;-49
2023/03/24 10:51:18;;;;;;;4.40;1.42;;;;;;;17.60;44.56;98295.66;5073702;28;20051;-49
2023/03/24 10:53:47;;;;;;;5.65;2.25;;;;;;;17.62;45.28;98302.31;5073964;28;20130;-49
2023/03/24 10:56:35;;;;;;;2.65;1.50;;;;;;;17.63;44.66;98295.97;5092302;28;20036;-49
2023/03/24 10:59:01;;;;;;;4.43;1.70;;;;;;;17.57;44.94;98273.09;5092088;28;20028;-49
2023/03/24 11:01:29;;;;;;;5.28;1.88;;;;;;;17.48;44.90;98275.41;5073873;28;20387;-49
2023/03/24 11:04:02;;;;;;;3.63;1.65;;;;;;;17.46;45.33;98305.91;5074027;28;20115;-49
2023/03/24 11:06:28;;;;;;;8.05;2.13;;;;;;;17.59;44.53;98297.53;5092259;28;20031;-49
2023/03/24 11:09:37;;;;;;;3.95;1.50;;;;;;;17.76;44.16;98308.75;5057112;28;20027;-49
2023/03/24 11:12:03;;;;;;;5.60;2.38;;;;;;;17.95;44.03;98311.84;4976877;28;20030;-49
2023/03/24 11:14:29;;;;;;;2.72;1.48;;;;;;;18.02;43.66;98290.34;5008980;28;20602;-49
2023/03/24 11:17:14;;;;;;;6.30;2.05;;;;;;;18.07;43.91;98286.91;5009690;28;20026;-49
2023/03/24 11:19:51;;;;;;;7.55;1.95;;;;;;;18.30;44.03;98294.47;5009804;28;20061;-49
2023/03/24 11:22:17;;;;;;;8.52;2.25;;;;;;;18.42;42.72;98267.66;5009761;28;20095;-49
2023/03/24 11:24:42;;;;;;;7.82;1.80;;;;;;;18.33;42.99;98290.47;5009693;28;20377;-49
2023/03/24 11:27:15;;;;;;;3.22;1.08;;;;;;;18.23;43.50;98277.97;5009559;28;20053;-49
2023/03/24 11:29:42;;;;;;;6.70;2.50;;;;;;;18.27;43.84;98286.19;5009698;28;20038;-49
2023/03/24 11:32:15;;;;;;;4.75;1.67;;;;;;;18.40;43.35;98272.44;4993128;28;20034;-49
2023/03/24 11:35:04;;;;;;;5.65;1.90;;;;;;;18.44;43.41;98284.16;5009597;28;20069;-49
2023/03/24 11:37:34;;;;;;;6.03;1.48;;;;;;;18.28;43.05;98270.00;5009661;28;20547;-49
2023/03/24 11:40:11;;;;;;;4.13;1.30;;;;;;;18.03;43.40;98307.91;5009447;28;20034;-49
2023/03/24 11:42:49;;;;;;;5.30;1.42;;;;;;;17.82;44.18;98296.31;5009534;28;20072;-49
2023/03/24 11:45:45;;;;;;;3.50;1.40;;;;;;;17.69;44.67;98302.91;5029210;28;20496;-49
2023/03/24 11:48:26;;;;;;;;;;;;;;;17.67;44.91;98256.44;5063037;28;20585;-49
2023/03/24 11:50:54;;;;;;;2.70;1.45;;;;;;;17.65;45.08;98309.78;5091533;28;19916;-50
2023/03/24 11:53:45;;;;;;;9.43;1.77;;;;;;;17.69;45.67;98307.41;5073340;28;20508;-49